Time;durP1;ratioP1;P1;durP2;ratioP2;P2;SDS_P1;SDS_P2;PMS_P1;PMS_P2;Temp;Humidity;BMP_temperature;BMP_pressure;BME280_temperature;BME280_humidity;BME280_pressure;Samples;Min_cycle;Max_cycle;Signal;HPM_P1;HPM_P2
2023/06/23 00:00:25;;;;;;;4.85;4.47;;;18.80;99.90;;;;;;2075286;28;20082;-71
2023/06/23 00:01:26;;;;;;;4.53;4.13;;;18.80;99.90;;;;;;2074462;28;20026;-71
2023/06/23 00:02:27;;;;;;;5.25;4.80;;;18.80;99.90;;;;;;2075958;28;20445;-71
2023/06/23 00:03:30;;;;;;;5.00;4.60;;;18.80;99.90;;;;;;2073628;28;20026;-71
2023/06/23 00:04:31;;;;;;;5.20;4.80;;;18.80;99.90;;;;;;2076657;28;20120;-71
2023/06/23 00:05:31;;;;;;;4.70;4.40;;;18.80;99.90;;;;;;2075742;28;20737;-72
2023/06/23 00:06:32;;;;;;;5.03;4.65;;;18.80;99.90;;;;;;2078046;28;20032;-71
2023/06/23 00:07:35;;;;;;;5.20;4.80;;;18.80;99.90;;;;;;2078099;28;20048;-71
2023/06/23 00:08:38;;;;;;;4.70;4.40;;;18.70;99.90;;;;;;2076336;28;20033;-72
2023/06/23 00:09:38;;;;;;;4.70;4.38;;;18.70;99.90;;;;;;2075371;28;20021;-72
2023/06/23 00:10:39;;;;;;;4.72;4.43;;;18.70;99.90;;;;;;2075190;28;20033;-71
2023/06/23 00:11:42;;;;;;;5.07;4.68;;;18.70;99.90;;;;;;2077137;28;20037;-72
2023/06/23 00:12:43;;;;;;;4.43;4.13;;;18.70;99.90;;;;;;2077508;28;20013;-71
2023/06/23 00:13:44;;;;;;;5.30;4.85;;;18.70;99.90;;;;;;2078017;28;20500;-72
2023/06/23 00:14:44;;;;;;;4.80;4.50;;;18.80;99.90;;;;;;2077879;28;20108;-71
2023/06/23 00:15:45;;;;;;;4.68;4.38;;;18.70;99.90;;;;;;2074551;28;20065;-72
2023/06/23 00:16:45;;;;;;;5.03;4.68;;;18.70;99.90;;;;;;2075929;28;20022;-72
2023/06/23 00:17:47;;;;;;;4.57;4.28;;;18.70;99.90;;;;;;2076139;28;20045;-72
2023/06/23 00:18:47;;;;;;;5.13;4.72;;;18.70;99.90;;;;;;2075205;28;20210;-72
2023/06/23 00:19:48;;;;;;;4.75;4.43;;;18.70;99.90;;;;;;2074180;28;20053;-72
2023/06/23 00:20:49;;;;;;;4.72;4.43;;;18.70;99.90;;;;;;2075467;28;20072;-71
2023/06/23 00:21:51;;;;;;;4.40;4.10;;;18.70;99.90;;;;;;2075889;28;20022;-72
2023/06/23 00:22:52;;;;;;;5.75;4.90;;;18.70;99.90;;;;;;2075527;28;20038;-72
2023/06/23 00:23:54;;;;;;;5.10;4.70;;;18.70;99.90;;;;;;2075835;28;20258;-72
2023/06/23 00:24:55;;;;;;;4.63;4.22;;;18.70;99.90;;;;;;2072407;28;21262;-72
2023/06/23 00:25:57;;;;;;;4.85;4.45;;;18.70;99.90;;;;;;2077499;28;20053;-72
2023/06/23 00:26:57;;;;;;;5.43;4.93;;;18.70;99.90;;;;;;2075075;28;20108;-72
2023/06/23 00:27:59;;;;;;;7.53;5.72;;;18.70;99.90;;;;;;2074373;28;20028;-72
2023/06/23 00:29:00;;;;;;;5.43;4.85;;;18.70;99.90;;;;;;2078396;28;20033;-72
2023/06/23 00:30:02;;;;;;;5.57;5.07;;;18.80;99.90;;;;;;2068137;28;20550;-72
2023/06/23 00:31:02;;;;;;;5.28;4.88;;;18.80;99.90;;;;;;2075380;28;20068;-72
2023/06/23 00:32:03;;;;;;;6.47;5.82;;;18.80;99.90;;;;;;2074945;28;20036;-72
2023/06/23 00:33:04;;;;;;;6.25;5.75;;;18.80;99.90;;;;;;2076246;28;20057;-72
2023/06/23 00:34:04;;;;;;;6.78;5.50;;;18.80;99.90;;;;;;2073445;28;20498;-72
2023/06/23 00:35:06;;;;;;;6.38;5.88;;;18.80;99.90;;;;;;2072813;28;20381;-72
2023/06/23 00:36:07;;;;;;;6.90;6.30;;;18.80;99.90;;;;;;2076125;28;20025;-72
2023/06/23 00:37:08;;;;;;;6.13;5.60;;;18.80;99.90;;;;;;2075136;28;20030;-72
2023/06/23 00:38:09;;;;;;;7.15;6.55;;;18.80;99.90;;;;;;2076847;28;20116;-72
2023/06/23 00:39:09;;;;;;;6.43;5.82;;;18.80;99.90;;;;;;2075692;28;20208;-72
2023/06/23 00:40:10;;;;;;;6.90;6.20;;;18.80;99.90;;;;;;2074840;28;20033;-72
2023/06/23 00:41:11;;;;;;;5.93;5.43;;;18.80;99.90;;;;;;2074648;28;20022;-72
2023/06/23 00:42:12;;;;;;;6.75;6.25;;;18.80;99.90;;;;;;2077495;28;20059;-72
2023/06/23 00:43:12;;;;;;;7.05;6.38;;;18.80;99.90;;;;;;2077698;28;20143;-72
2023/06/23 00:44:13;;;;;;;7.22;6.53;;;18.70;99.90;;;;;;2074925;28;20091;-72
2023/06/23 00:45:14;;;;;;;7.00;6.40;;;18.80;99.90;;;;;;2075352;28;20518;-72
2023/06/23 00:46:17;;;;;;;6.68;6.07;;;18.70;99.90;;;;;;2074938;28;20021;-72
2023/06/23 00:47:18;;;;;;;7.07;6.38;;;18.80;99.90;;;;;;2073951;28;20028;-72
2023/06/23 00:48:19;;;;;;;6.43;5.93;;;18.70;99.90;;;;;;2075584;28;20064;-72
2023/06/23 00:49:19;;;;;;;9.10;6.90;;;18.70;99.90;;;;;;2074766;28;20513;-72
2023/06/23 00:50:21;;;;;;;7.63;6.60;;;18.70;99.90;;;;;;2073397;28;20039;-72
2023/06/23 00:51:22;;;;;;;6.60;6.00;;;18.70;99.90;;;;;;2074659;28;20052;-72
2023/06/23 00:52:24;;;;;;;6.20;5.60;;;18.70;99.90;;;;;;2077833;28;20065;-72
2023/06/23 00:53:25;;;;;;;7.45;6.85;;;18.70;99.90;;;;;;2079043;28;20025;-71
2023/06/23 00:54:28;;;;;;;7.25;6.55;;;18.70;99.90;;;;;;2075605;28;20037;-71
2023/06/23 00:55:28;;;;;;;6.90;6.30;;;18.70;99.90;;;;;;2074313;28;20026;-72
2023/06/23 00:56:30;;;;;;;6.55;5.95;;;18.70;99.90;;;;;;2074820;28;20546;-72
2023/06/23 00:57:31;;;;;;;7.10;6.50;;;18.70;99.90;;;;;;2076096;28;20531;-72
2023/06/23 00:58:36;;;;;;;6.95;6.32;;;18.70;99.90;;;;;;2074632;28;20577;-72
2023/06/23 00:59:37;;;;;;;6.95;6.35;;;18.70;99.90;;;;;;2074411;28;20706;-72
2023/06/23 01:00:37;;;;;;;6.75;6.15;;;18.70;99.90;;;;;;2074086;28;20435;-72
2023/06/23 01:01:38;;;;;;;6.78;6.18;;;18.70;99.90;;;;;;2076983;28;20021;-72
2023/06/23 01:02:39;;;;;;;8.73;7.38;;;18.60;99.90;;;;;;2077638;28;20075;-72
2023/06/23 01:03:40;;;;;;;6.97;6.47;;;18.60;99.90;;;;;;2076405;28;20018;-72
2023/06/23 01:04:41;;;;;;;5.95;5.45;;;18.60;99.90;;;;;;2076157;28;20036;-72
2023/06/23 01:05:42;;;;;;;6.72;6.13;;;18.60;99.90;;;;;;2074712;28;20048;-72
2023/06/23 01:06:59;;;;;;;6.85;6.20;;;18.60;99.90;;;;;;2073339;28;20839;-72
2023/06/23 01:08:25;;;;;;;6.63;6.00;;;18.60;99.90;;;;;;2075323;28;20040;-71
2023/06/23 01:09:36;;;;;;;7.22;6.50;;;18.60;99.90;;;;;;2074874;28;20052;-72
2023/06/23 01:10:42;;;;;;;7.05;6.35;;;18.50;99.90;;;;;;2074651;28;20029;-72
2023/06/23 01:12:03;;;;;;;8.85;7.03;;;18.50;99.90;;;;;;2082243;28;20501;-72
2023/06/23 01:13:19;;;;;;;6.78;5.68;;;18.50;99.90;;;;;;2081187;28;20939;-72
2023/06/23 01:14:36;;;;;;;7.18;6.47;;;18.50;99.90;;;;;;2076901;28;20022;-72
2023/06/23 01:15:41;;;;;;;7.13;6.00;;;18.50;99.90;;;;;;2078745;28;20049;-72
2023/06/23 01:17:03;;;;;;;6.65;6.05;;;18.50;99.90;;;;;;2077518;28;20038;-72
2023/06/23 01:18:21;;;;;;;7.65;6.95;;;18.50;99.90;;;;;;2075126;28;20025;-72
2023/06/23 01:19:52;;;;;;;7.32;6.45;;;18.50;99.90;;;;;;2074684;28;20022;-72
2023/06/23 01:20:58;;;;;;;7.05;6.45;;;18.50;99.90;;;;;;2076271;28;20032;-72
2023/06/23 01:22:10;;;;;;;6.95;6.32;;;18.50;99.90;;;;;;2076577;28;20033;-72
2023/06/23 01:23:36;;;;;;;7.07;6.45;;;18.50;99.90;;;;;;2073993;28;20030;-71
2023/06/23 01:25:11;;;;;;;7.57;6.97;;;18.50;99.90;;;;;;2074432;28;20030;-72
2023/06/23 01:26:40;;;;;;;6.70;6.20;;;18.50;99.90;;;;;;2074252;28;20033;-72
2023/06/23 01:27:56;;;;;;;8.02;7.22;;;18.50;99.90;;;;;;2075279;28;20039;-72
2023/06/23 01:29:00;;;;;;;7.90;7.10;;;18.50;99.90;;;;;;2072981;28;20030;-72
2023/06/23 01:30:02;;;;;;;9.23;7.82;;;18.50;99.90;;;;;;2075009;28;20369;-72
2023/06/23 01:31:06;;;;;;;8.32;7.53;;;18.50;99.90;;;;;;2076076;28;20497;-72
2023/06/23 01:32:14;;;;;;;8.18;7.47;;;18.60;99.90;;;;;;2075507;28;20413;-72
2023/06/23 01:33:26;;;;;;;7.72;7.03;;;18.60;99.90;;;;;;2076158;28;20909;-72
2023/06/23 01:34:37;;;;;;;7.57;6.95;;;18.60;99.90;;;;;;2073773;28;20010;-72
2023/06/23 01:35:43;;;;;;;8.77;7.22;;;18.60;99.90;;;;;;2074958;28;20095;-72
2023/06/23 01:36:50;;;;;;;8.00;7.22;;;18.60;99.90;;;;;;2075049;28;20442;-72
2023/06/23 01:37:57;;;;;;;8.48;7.60;;;18.60;99.90;;;;;;2074062;28;20108;-72
2023/06/23 01:39:03;;;;;;;7.85;7.07;;;18.60;99.90;;;;;;2074942;28;20144;-72
2023/06/23 01:40:14;;;;;;;8.50;7.70;;;18.60;99.90;;;;;;2069529;28;20038;-72
2023/06/23 01:41:24;;;;;;;8.23;7.35;;;18.60;99.90;;;;;;2074952;28;20140;-72
2023/06/23 01:42:31;;;;;;;7.30;6.70;;;18.60;99.90;;;;;;2074405;28;20030;-72
2023/06/23 01:43:34;;;;;;;7.38;6.78;;;18.60;99.90;;;;;;2074534;28;20088;-72
2023/06/23 01:44:38;;;;;;;7.57;6.97;;;18.60;99.90;;;;;;2074314;28;20358;-72
2023/06/23 01:45:40;;;;;;;8.48;7.55;;;18.70;99.90;;;;;;2076521;28;20049;-72
2023/06/23 01:46:47;;;;;;;8.55;7.80;;;18.70;99.90;;;;;;2074208;28;20979;-72
2023/06/23 01:47:49;;;;;;;9.40;7.40;;;18.70;99.90;;;;;;2075455;28;20076;-72
2023/06/23 01:48:51;;;;;;;8.30;7.60;;;18.70;99.90;;;;;;2075457;28;20113;-72
2023/06/23 01:49:52;;;;;;;8.35;7.55;;;18.80;99.90;;;;;;2073707;28;20719;-72
2023/06/23 01:50:54;;;;;;;12.35;8.82;;;18.80;99.90;;;;;;2073039;28;20039;-72
2023/06/23 01:51:56;;;;;;;8.63;7.82;;;18.80;99.90;;;;;;2076006;28;20080;-72
2023/06/23 01:53:00;;;;;;;9.13;8.32;;;18.70;99.90;;;;;;2075447;28;20104;-72
2023/06/23 01:54:01;;;;;;;8.98;8.13;;;18.70;99.90;;;;;;2075525;28;20049;-72
2023/06/23 01:55:04;;;;;;;7.68;7.05;;;18.70;99.90;;;;;;2074413;28;20236;-72
2023/06/23 01:56:06;;;;;;;9.18;8.27;;;18.80;99.90;;;;;;2074752;28;20511;-72
2023/06/23 01:57:10;;;;;;;8.10;7.32;;;18.70;99.90;;;;;;2076110;28;20025;-72
2023/06/23 01:58:13;;;;;;;8.23;7.63;;;18.80;99.90;;;;;;2073323;28;20036;-72
2023/06/23 01:59:15;;;;;;;10.10;8.65;;;18.70;99.90;;;;;;2074848;28;20104;-72
2023/06/23 02:00:18;;;;;;;9.30;8.32;;;18.70;99.90;;;;;;2074508;28;20370;-72
2023/06/23 02:01:20;;;;;;;8.43;7.68;;;18.70;99.90;;;;;;2074546;28;20105;-72
2023/06/23 02:02:23;;;;;;;8.25;7.55;;;18.70;99.90;;;;;;2073809;28;20087;-72
2023/06/23 02:03:27;;;;;;;7.72;7.00;;;18.70;99.90;;;;;;2073772;28;20864;-72
2023/06/23 02:04:29;;;;;;;9.20;8.35;;;18.70;99.90;;;;;;2074778;28;20073;-72
2023/06/23 02:05:31;;;;;;;9.45;8.55;;;18.70;99.90;;;;;;2078291;28;20029;-72
2023/06/23 02:06:36;;;;;;;10.50;9.50;;;18.70;99.90;;;;;;2077570;28;20021;-72
2023/06/23 02:07:38;;;;;;;9.73;8.82;;;18.70;99.90;;;;;;2073786;28;20489;-72
2023/06/23 02:08:40;;;;;;;9.90;8.90;;;18.70;99.90;;;;;;2075007;28;20037;-72
2023/06/23 02:09:42;;;;;;;10.50;9.45;;;18.70;99.90;;;;;;2074336;28;20026;-72
2023/06/23 02:10:44;;;;;;;8.75;8.05;;;18.70;99.90;;;;;;2073525;28;20036;-72
2023/06/23 02:11:46;;;;;;;9.55;8.75;;;18.70;99.90;;;;;;2073014;28;20052;-72
2023/06/23 02:12:48;;;;;;;11.15;10.07;;;18.70;99.90;;;;;;2073493;28;20025;-72
2023/06/23 02:13:50;;;;;;;9.60;8.73;;;18.70;99.90;;;;;;2076192;28;20017;-72
2023/06/23 02:14:51;;;;;;;10.07;8.85;;;18.70;99.90;;;;;;2075197;28;20113;-72
2023/06/23 02:15:56;;;;;;;11.13;9.23;;;18.70;99.90;;;;;;2075450;28;20032;-72
2023/06/23 02:16:58;;;;;;;9.32;8.32;;;18.80;99.90;;;;;;2074614;28;20057;-72
2023/06/23 02:18:00;;;;;;;10.85;9.88;;;18.70;99.90;;;;;;2073728;28;20018;-72
2023/06/23 02:19:02;;;;;;;9.05;8.25;;;18.70;99.90;;;;;;2074692;28;20128;-72
2023/06/23 02:20:13;;;;;;;10.93;9.82;;;18.70;99.90;;;;;;2074021;28;20018;-72
2023/06/23 02:21:15;;;;;;;10.57;8.95;;;18.70;99.90;;;;;;2071946;28;20084;-72
2023/06/23 02:22:21;;;;;;;10.85;9.95;;;18.70;99.90;;;;;;2075092;28;20043;-72
2023/06/23 02:23:23;;;;;;;12.23;9.63;;;18.80;99.90;;;;;;2076471;28;20030;-72
2023/06/23 02:24:25;;;;;;;10.82;9.93;;;18.80;99.90;;;;;;2074961;28;20405;-72
2023/06/23 02:25:26;;;;;;;11.23;10.00;;;18.80;99.90;;;;;;2074089;28;20034;-72
2023/06/23 02:26:26;;;;;;;10.40;9.50;;;18.80;99.90;;;;;;2074303;28;20782;-72
2023/06/23 02:27:28;;;;;;;10.57;9.57;;;18.80;99.90;;;;;;2075282;28;20101;-72
2023/06/23 02:28:29;;;;;;;11.15;10.13;;;18.80;99.90;;;;;;2077369;28;20022;-72
2023/06/23 02:29:30;;;;;;;10.68;9.68;;;18.80;99.90;;;;;;2077182;28;20096;-72
2023/06/23 02:30:31;;;;;;;10.52;9.60;;;18.80;99.90;;;;;;2074407;28;20029;-72
2023/06/23 02:31:33;;;;;;;9.07;8.27;;;18.80;99.90;;;;;;2078576;28;20032;-72
2023/06/23 02:32:34;;;;;;;10.48;9.48;;;18.80;99.90;;;;;;2076321;28;20527;-72
2023/06/23 02:33:34;;;;;;;10.07;9.27;;;18.80;99.90;;;;;;2075127;28;20387;-72
2023/06/23 02:34:35;;;;;;;11.45;10.35;;;18.80;99.90;;;;;;2076562;28;20100;-72
2023/06/23 02:35:36;;;;;;;10.55;9.55;;;18.80;99.90;;;;;;2077916;28;20017;-72
2023/06/23 02:36:52;;;;;;;9.65;8.75;;;18.80;99.90;;;;;;2077155;28;20025;-72
2023/06/23 02:37:55;;;;;;;9.77;8.90;;;18.90;99.90;;;;;;2075955;28;20595;-72
2023/06/23 02:38:58;;;;;;;11.48;10.38;;;18.80;99.90;;;;;;2074870;28;20053;-72
2023/06/23 02:40:08;;;;;;;11.23;9.48;;;18.90;99.90;;;;;;2077029;28;20068;-72
2023/06/23 02:41:12;;;;;;;8.75;8.05;;;18.90;99.90;;;;;;2077898;28;20025;-72
2023/06/23 02:42:15;;;;;;;9.20;8.30;;;18.80;99.90;;;;;;2075653;28;20041;-72
2023/06/23 02:43:21;;;;;;;10.40;9.50;;;18.80;99.90;;;;;;2075753;28;20554;-72
2023/06/23 02:44:35;;;;;;;10.05;9.00;;;18.90;99.90;;;;;;2076243;28;20034;-72
2023/06/23 02:45:43;;;;;;;7.97;7.05;;;18.90;99.90;;;;;;2075657;28;20014;-72
2023/06/23 02:46:48;;;;;;;9.88;8.88;;;18.80;99.90;;;;;;2076342;28;20029;-72
2023/06/23 02:47:54;;;;;;;12.43;9.68;;;18.80;99.90;;;;;;2079073;28;20022;-72
2023/06/23 02:49:04;;;;;;;10.50;9.60;;;18.90;99.90;;;;;;2079321;28;20025;-72
2023/06/23 02:50:08;;;;;;;9.93;8.98;;;18.80;99.90;;;;;;2075028;28;20567;-72
2023/06/23 02:51:14;;;;;;;9.85;9.05;;;18.90;99.90;;;;;;2075776;28;20083;-72
2023/06/23 02:52:16;;;;;;;9.98;9.15;;;18.90;99.90;;;;;;2076116;28;20125;-72
2023/06/23 02:53:27;;;;;;;9.65;8.25;;;18.90;99.90;;;;;;2077576;28;20064;-72
2023/06/23 02:54:36;;;;;;;9.70;8.23;;;18.90;99.90;;;;;;2075282;28;20018;-72
2023/06/23 02:55:44;;;;;;;8.85;8.05;;;18.90;99.90;;;;;;2074969;28;21500;-72
2023/06/23 02:56:46;;;;;;;10.13;9.02;;;18.90;99.90;;;;;;2074370;28;20025;-72
2023/06/23 02:57:50;;;;;;;9.05;8.15;;;18.80;99.90;;;;;;2073426;28;20115;-72
2023/06/23 02:58:57;;;;;;;9.45;8.55;;;18.90;99.90;;;;;;2078488;28;20057;-72
2023/06/23 03:00:00;;;;;;;8.63;7.82;;;18.80;99.90;;;;;;2075200;28;20079;-72
2023/06/23 03:01:02;;;;;;;9.50;8.57;;;18.80;99.90;;;;;;2074077;28;20084;-72
2023/06/23 03:02:06;;;;;;;8.30;7.50;;;18.80;99.90;;;;;;2076895;28;20029;-72
2023/06/23 03:03:12;;;;;;;9.38;8.48;;;18.80;99.90;;;;;;2075579;28;20048;-72
2023/06/23 03:04:13;;;;;;;9.90;7.93;;;18.70;99.90;;;;;;2074270;28;20045;-72
2023/06/23 03:05:14;;;;;;;9.27;8.40;;;18.70;99.90;;;;;;2075227;28;20037;-72
2023/06/23 03:06:22;;;;;;;8.95;8.15;;;18.80;99.90;;;;;;2075678;28;20021;-72
2023/06/23 03:07:24;;;;;;;11.82;8.88;;;18.80;99.90;;;;;;2077624;28;20036;-72
2023/06/23 03:08:25;;;;;;;10.15;8.63;;;18.70;99.90;;;;;;2079614;28;20113;-72
2023/06/23 03:09:26;;;;;;;9.15;8.27;;;18.70;99.90;;;;;;2074678;28;20032;-72
2023/06/23 03:10:28;;;;;;;8.88;8.18;;;18.70;99.90;;;;;;2074271;28;20030;-72
2023/06/23 03:11:30;;;;;;;9.70;8.70;;;18.80;99.90;;;;;;2073555;28;20112;-72
2023/06/23 03:12:31;;;;;;;10.35;8.40;;;18.70;99.90;;;;;;2074131;28;20491;-72
2023/06/23 03:13:32;;;;;;;8.82;7.93;;;18.70;99.90;;;;;;2077044;28;20608;-72
2023/06/23 03:14:33;;;;;;;9.63;8.45;;;18.70;99.90;;;;;;2076110;28;20384;-72
2023/06/23 03:15:36;;;;;;;9.75;8.95;;;18.70;99.90;;;;;;2076965;28;20045;-72
2023/06/23 03:16:46;;;;;;;9.30;8.35;;;18.70;99.90;;;;;;2076395;28;20014;-72
2023/06/23 03:17:48;;;;;;;;;;;18.70;99.90;;;;;;2077135;28;20033;-72
2023/06/23 03:19:13;;;;;;;9.70;8.77;;;18.70;99.90;;;;;;2076564;28;19920;-72
2023/06/23 03:20:35;;;;;;;10.55;9.55;;;18.70;99.90;;;;;;2076767;28;20104;-72
2023/06/23 03:21:37;;;;;;;10.55;9.07;;;18.70;99.90;;;;;;2074861;28;20408;-72
2023/06/23 03:22:52;;;;;;;10.30;9.50;;;18.70;99.90;;;;;;2075912;28;20028;-72
2023/06/23 03:23:55;;;;;;;11.15;10.02;;;18.60;99.90;;;;;;2075475;28;20052;-72
2023/06/23 03:25:02;;;;;;;10.82;9.55;;;18.70;99.90;;;;;;2074888;28;20377;-72
2023/06/23 03:26:05;;;;;;;10.02;9.13;;;18.70;99.90;;;;;;2075345;28;20026;-72
2023/06/23 03:27:09;;;;;;;10.63;9.75;;;18.60;99.90;;;;;;2075585;28;20053;-72
2023/06/23 03:28:12;;;;;;;11.15;10.10;;;18.70;99.90;;;;;;2074426;28;20068;-72
2023/06/23 03:29:14;;;;;;;10.57;9.43;;;18.70;99.90;;;;;;2075003;28;20048;-72
2023/06/23 03:30:31;;;;;;;10.18;9.13;;;18.70;99.90;;;;;;2075575;28;20121;-72
2023/06/23 03:31:34;;;;;;;10.43;9.52;;;18.70;99.90;;;;;;2076857;28;20029;-72
2023/06/23 03:32:41;;;;;;;10.77;9.68;;;18.70;99.90;;;;;;2073281;28;20473;-72
2023/06/23 03:33:44;;;;;;;9.23;8.32;;;18.60;99.90;;;;;;2074723;28;20453;-72
2023/06/23 03:35:04;;;;;;;11.13;9.95;;;18.60;99.90;;;;;;2075497;28;20029;-72
2023/06/23 03:36:11;;;;;;;10.48;9.27;;;18.70;99.90;;;;;;2074831;28;20021;-72
2023/06/23 03:37:14;;;;;;;11.45;10.30;;;18.70;99.90;;;;;;2073850;28;20022;-72
2023/06/23 03:38:18;;;;;;;11.18;10.07;;;18.60;99.90;;;;;;2075401;28;20025;-72
2023/06/23 03:39:23;;;;;;;11.85;10.75;;;18.60;99.90;;;;;;2074757;28;20113;-72
2023/06/23 03:40:25;;;;;;;13.38;10.77;;;18.60;99.90;;;;;;2072031;28;20026;-72
2023/06/23 03:41:28;;;;;;;11.65;10.55;;;18.60;99.90;;;;;;2074521;28;20107;-72
2023/06/23 03:42:29;;;;;;;11.57;10.52;;;18.60;99.90;;;;;;2075828;28;20441;-72
2023/06/23 03:43:54;;;;;;;10.68;9.68;;;18.60;99.90;;;;;;2076119;28;20025;-72
2023/06/23 03:44:59;;;;;;;11.63;10.52;;;18.60;99.90;;;;;;2076823;28;20033;-72
2023/06/23 03:46:04;;;;;;;11.65;10.38;;;18.60;99.90;;;;;;2074342;28;20030;-72
2023/06/23 03:47:17;;;;;;;12.27;10.68;;;18.60;99.90;;;;;;2075149;28;20630;-72
2023/06/23 03:48:19;;;;;;;10.60;9.65;;;18.60;99.90;;;;;;2075123;28;20030;-72
2023/06/23 03:49:28;;;;;;;13.73;12.10;;;18.70;99.90;;;;;;2075593;28;20025;-72
2023/06/23 03:50:32;;;;;;;11.57;10.35;;;18.60;99.90;;;;;;2074478;28;20030;-72
2023/06/23 03:51:36;;;;;;;10.43;9.52;;;18.70;99.90;;;;;;2082463;28;20119;-72
2023/06/23 03:52:41;;;;;;;11.63;10.45;;;18.70;99.90;;;;;;2081984;28;20131;-72
2023/06/23 03:53:43;;;;;;;12.70;10.82;;;18.70;99.90;;;;;;2072980;28;20144;-72
2023/06/23 03:54:45;;;;;;;13.23;11.75;;;18.60;99.90;;;;;;2076101;28;20057;-72
2023/06/23 03:55:48;;;;;;;13.50;12.05;;;18.70;99.90;;;;;;2073501;28;20382;-72
2023/06/23 03:56:50;;;;;;;11.65;10.55;;;18.60;99.90;;;;;;2074735;28;20029;-72
2023/06/23 03:57:52;;;;;;;10.88;9.88;;;18.60;99.90;;;;;;2075584;28;20067;-72
2023/06/23 03:58:54;;;;;;;12.60;11.35;;;18.60;99.90;;;;;;2075030;28;20071;-72
2023/06/23 03:59:56;;;;;;;13.73;11.95;;;18.60;99.90;;;;;;2074563;28;20026;-72
2023/06/23 04:00:57;;;;;;;12.68;10.88;;;18.60;99.90;;;;;;2075274;28;20029;-72
2023/06/23 04:02:00;;;;;;;12.02;10.80;;;18.60;99.90;;;;;;2074032;28;20029;-72
2023/06/23 04:03:05;;;;;;;11.65;10.55;;;18.60;99.90;;;;;;2075727;28;20030;-72
2023/06/23 04:04:08;;;;;;;12.52;11.35;;;18.60;99.90;;;;;;2074729;28;20030;-72
2023/06/23 04:05:12;;;;;;;13.32;12.18;;;18.70;99.90;;;;;;2077848;28;20021;-72
2023/06/23 04:06:14;;;;;;;12.38;11.07;;;18.70;99.90;;;;;;2067450;28;20064;-72
2023/06/23 04:07:17;;;;;;;13.82;12.52;;;18.70;99.90;;;;;;2073749;28;20037;-72
2023/06/23 04:08:19;;;;;;;13.10;11.80;;;18.70;99.90;;;;;;2077193;28;20108;-72
2023/06/23 04:09:21;;;;;;;14.38;12.73;;;18.70;99.90;;;;;;2078736;28;20021;-72
2023/06/23 04:10:22;;;;;;;14.20;12.43;;;18.70;99.90;;;;;;2072544;28;20389;-72
2023/06/23 04:11:25;;;;;;;15.35;13.70;;;18.80;99.90;;;;;;2073753;28;20527;-72
2023/06/23 04:12:27;;;;;;;13.82;12.55;;;18.80;99.90;;;;;;2074719;28;20066;-72
2023/06/23 04:13:33;;;;;;;14.40;12.98;;;18.80;99.90;;;;;;2074550;28;20108;-72
2023/06/23 04:14:35;;;;;;;13.55;12.20;;;18.80;99.90;;;;;;2075104;28;20034;-72
2023/06/23 04:15:38;;;;;;;14.80;12.80;;;18.80;99.90;;;;;;2074060;28;20017;-72
2023/06/23 04:16:42;;;;;;;14.07;12.75;;;18.80;99.90;;;;;;2074574;28;20076;-72
2023/06/23 04:17:45;;;;;;;11.95;10.85;;;18.80;99.90;;;;;;2074464;28;20105;-72
2023/06/23 04:18:49;;;;;;;14.02;12.57;;;18.80;99.90;;;;;;2074850;28;20464;-72
2023/06/23 04:19:53;;;;;;;14.13;12.73;;;18.80;99.90;;;;;;2074406;28;20021;-72
2023/06/23 04:20:57;;;;;;;19.07;14.00;;;18.80;99.90;;;;;;2038410;28;1060342;-72
2023/06/23 04:22:00;;;;;;;15.18;13.65;;;18.80;99.90;;;;;;2075279;28;20445;-72
2023/06/23 04:23:03;;;;;;;14.55;13.05;;;18.80;99.90;;;;;;2074575;28;20112;-72
2023/06/23 04:24:05;;;;;;;14.25;12.85;;;18.80;99.90;;;;;;2076006;28;20496;-72
2023/06/23 04:25:09;;;;;;;15.80;13.30;;;18.80;99.90;;;;;;2075769;28;20025;-72
2023/06/23 04:26:13;;;;;;;14.38;12.95;;;18.80;99.90;;;;;;2075064;28;20729;-72
2023/06/23 04:27:17;;;;;;;13.68;12.35;;;18.80;99.90;;;;;;2075972;28;20448;-72
2023/06/23 04:28:22;;;;;;;15.00;12.55;;;18.80;99.90;;;;;;2075829;28;20033;-72
2023/06/23 04:29:24;;;;;;;15.52;12.63;;;18.80;99.90;;;;;;2073773;28;20079;-72
2023/06/23 04:30:28;;;;;;;13.65;12.30;;;18.70;99.90;;;;;;2074424;28;20014;-72
2023/06/23 04:31:30;;;;;;;14.88;12.60;;;18.70;99.90;;;;;;2074255;28;20045;-72
2023/06/23 04:32:32;;;;;;;15.30;13.90;;;18.80;99.90;;;;;;2074263;28;20021;-72
2023/06/23 04:33:33;;;;;;;14.30;13.10;;;18.70;99.90;;;;;;2075404;28;20018;-72
2023/06/23 04:34:34;;;;;;;16.95;13.52;;;18.80;99.90;;;;;;2074199;28;20053;-72
2023/06/23 04:35:36;;;;;;;18.27;13.60;;;18.70;99.90;;;;;;2075883;28;20021;-72
2023/06/23 04:36:44;;;;;;;14.00;12.57;;;18.80;99.90;;;;;;2072611;28;20025;-72
2023/06/23 04:37:48;;;;;;;13.88;12.57;;;18.80;99.90;;;;;;2073650;28;20018;-72
2023/06/23 04:39:07;;;;;;;15.38;13.55;;;18.80;99.90;;;;;;2076669;28;20021;-72
2023/06/23 04:40:13;;;;;;;15.20;13.15;;;18.80;99.90;;;;;;2074922;28;20025;-72
2023/06/23 04:41:19;;;;;;;14.68;13.25;;;18.80;99.90;;;;;;2075508;28;20084;-72
2023/06/23 04:42:25;;;;;;;13.90;12.60;;;18.80;99.90;;;;;;2074992;28;20057;-72
2023/06/23 04:43:31;;;;;;;14.88;13.40;;;18.80;99.90;;;;;;2066633;28;20573;-72
2023/06/23 04:44:42;;;;;;;17.23;13.98;;;18.70;99.90;;;;;;2078319;28;20033;-72
2023/06/23 04:45:58;;;;;;;16.05;12.95;;;18.80;99.90;;;;;;2075168;28;20029;-72
2023/06/23 04:47:03;;;;;;;14.75;13.30;;;18.70;99.90;;;;;;2077277;28;20057;-72
2023/06/23 04:48:06;;;;;;;13.82;12.45;;;18.70;99.90;;;;;;2076535;28;20288;-72
2023/06/23 04:49:09;;;;;;;14.57;12.23;;;18.70;99.90;;;;;;2076726;28;20091;-72
2023/06/23 04:50:14;;;;;;;13.40;12.00;;;18.70;99.90;;;;;;2073517;28;20068;-72
2023/06/23 04:51:17;;;;;;;14.85;12.95;;;18.80;99.90;;;;;;2073325;28;20033;-72
2023/06/23 04:52:20;;;;;;;13.88;12.60;;;18.80;99.90;;;;;;2074234;28;20041;-72
2023/06/23 04:53:27;;;;;;;14.77;12.35;;;18.70;99.90;;;;;;2075553;28;20034;-72
2023/06/23 04:54:42;;;;;;;14.40;12.93;;;18.80;99.90;;;;;;2075293;28;20018;-72
2023/06/23 04:55:47;;;;;;;13.30;11.90;;;18.80;99.90;;;;;;2074806;28;20045;-72
2023/06/23 04:56:59;;;;;;;14.30;12.38;;;18.80;99.90;;;;;;2075454;28;20091;-72
2023/06/23 04:58:04;;;;;;;14.07;11.68;;;18.80;99.90;;;;;;2072385;28;20033;-72
2023/06/23 04:59:08;;;;;;;14.60;12.35;;;18.80;99.90;;;;;;2074847;28;20030;-72
2023/06/23 05:00:11;;;;;;;13.98;12.65;;;18.80;99.90;;;;;;2074252;28;20022;-72
2023/06/23 05:01:13;;;;;;;12.30;11.27;;;18.80;99.90;;;;;;2070326;28;20477;-72
2023/06/23 05:02:16;;;;;;;13.85;12.52;;;18.80;99.90;;;;;;2070713;28;20389;-72
2023/06/23 05:03:18;;;;;;;13.70;12.45;;;18.80;99.90;;;;;;2073590;28;20026;-72
2023/06/23 05:04:19;;;;;;;14.20;12.48;;;18.80;99.90;;;;;;2075606;28;20028;-72
2023/06/23 05:05:25;;;;;;;14.63;13.13;;;18.80;99.90;;;;;;2075406;28;20520;-72
2023/06/23 05:06:27;;;;;;;12.82;11.55;;;18.80;99.90;;;;;;2077728;28;20041;-72
2023/06/23 05:07:29;;;;;;;13.68;12.45;;;18.80;99.90;;;;;;2077592;28;20060;-72
2023/06/23 05:08:32;;;;;;;13.95;12.55;;;18.80;99.90;;;;;;2073960;28;20100;-72
2023/06/23 05:09:34;;;;;;;14.90;13.30;;;18.80;99.90;;;;;;2075025;28;20124;-72
2023/06/23 05:10:37;;;;;;;13.90;12.55;;;18.90;99.90;;;;;;2073461;28;20014;-72
2023/06/23 05:11:40;;;;;;;15.05;12.23;;;18.90;99.90;;;;;;2075519;28;20025;-72
2023/06/23 05:12:41;;;;;;;15.07;13.48;;;18.90;99.90;;;;;;2075066;28;20025;-72
2023/06/23 05:13:42;;;;;;;14.73;13.32;;;18.90;99.90;;;;;;2076433;28;20071;-72
2023/06/23 05:14:46;;;;;;;14.63;12.45;;;18.80;99.90;;;;;;2078478;28;20021;-72
2023/06/23 05:15:48;;;;;;;17.52;13.07;;;18.90;99.90;;;;;;2078007;28;20084;-72
2023/06/23 05:16:48;;;;;;;15.32;13.35;;;18.90;99.90;;;;;;2074808;28;20018;-72
2023/06/23 05:17:55;;;;;;;13.88;12.55;;;18.90;99.90;;;;;;2075188;28;20074;-72
2023/06/23 05:18:56;;;;;;;17.00;13.85;;;18.90;99.90;;;;;;2075713;28;20041;-72
2023/06/23 05:19:58;;;;;;;15.45;13.38;;;18.90;99.90;;;;;;2076500;28;20049;-72
2023/06/23 05:21:01;;;;;;;16.42;13.80;;;18.90;99.90;;;;;;2074989;28;20034;-72
2023/06/23 05:22:03;;;;;;;14.65;13.18;;;18.90;99.90;;;;;;2073812;28;20076;-72
2023/06/23 05:23:05;;;;;;;17.65;12.95;;;18.90;99.90;;;;;;2074446;28;20461;-72
2023/06/23 05:24:10;;;;;;;16.30;11.95;;;18.90;99.90;;;;;;2082175;28;20017;-72
2023/06/23 05:25:11;;;;;;;15.10;13.55;;;19.00;99.90;;;;;;2076268;28;20044;-72
2023/06/23 05:26:14;;;;;;;13.70;12.27;;;18.90;99.90;;;;;;2074424;28;20026;-72
2023/06/23 05:27:19;;;;;;;15.10;13.48;;;19.00;99.90;;;;;;2075936;28;20025;-72
2023/06/23 05:28:20;;;;;;;15.10;13.57;;;18.90;99.90;;;;;;2076256;28;20030;-72
2023/06/23 05:29:24;;;;;;;15.70;12.65;;;18.90;99.90;;;;;;2074586;28;20033;-72
2023/06/23 05:30:25;;;;;;;12.85;11.75;;;19.00;99.90;;;;;;2074215;28;20025;-72
2023/06/23 05:31:29;;;;;;;14.02;12.75;;;19.00;99.90;;;;;;2074301;28;20141;-72